Latest Weather Observations for Kilmore Gap

IDV60801

Issued at 10:31 pm EDT Saturday 6 February 2016 (issued every 30 minutes, with the page automatically refreshed every 10 minutes)

About weather observations | Map of weather stations | Latest weather observations for VIC | Other Formats
Station Details ID: 088162 Name: KILMORE GAP Lat: -37.38 Lon: 144.97 Height: 527.8 m
Data from the previous 72 hours. | See also: Recent months at Kilmore Gap
Date/Time
EDT
Temp
°C
App
Temp
°C
Dew
Point
Rel
Hum
%
Delta-T
°C
Wind Press
QNH
hPa
Press
MSL
hPa
Rain
since 9 am
mm
Dir
 
Spd
km/h
Gust
km/h
Spd
kts
Gust
kts
06/10:30pm 23.0 23.3 12.3 51 6.2 ESE 2 6 1 3 1017.3 - 0.0
06/10:00pm 23.3 22.4 12.6 51 6.3 ESE 9 11 5 6 1017.1 - 0.0
06/09:30pm 23.1 21.1 12.7 52 6.1 SE 15 19 8 10 1016.7 - 0.0
06/09:00pm 23.3 21.3 12.6 51 6.3 SE 15 17 8 9 1016.3 - 0.0
06/08:30pm 23.7 20.7 12.7 50 6.5 SE 20 26 11 14 1016.1 - 0.0
06/08:00pm 25.1 21.6 13.3 48 7.0 SE 24 30 13 16 1016.0 - 0.0
06/07:30pm 26.6 23.6 11.9 40 8.6 SE 19 28 10 15 1015.8 - 0.0
06/07:00pm 27.6 25.9 9.9 33 10.1 SE 9 15 5 8 1015.7 - 0.0
06/06:30pm 27.7 25.1 9.5 32 10.3 SSE 13 19 7 10 1015.6 - 0.0
06/06:00pm 28.4 25.0 10.6 33 10.3 SE 19 26 10 14 1015.7 - 0.0
06/05:30pm 29.2 26.8 11.3 33 10.5 SE 15 22 8 12 1015.7 - 0.0
06/05:00pm 28.8 26.5 10.5 32 10.6 SE 13 20 7 11 1015.9 - 0.0
06/04:30pm 28.4 25.9 11.0 34 10.2 SE 15 24 8 13 1016.2 - 0.0
06/04:00pm 27.8 25.9 10.5 34 10.0 E 11 19 6 10 1016.7 - 0.0
06/03:30pm 28.0 26.3 11.1 35 9.9 S 11 20 6 11 1016.9 - 0.0
06/03:00pm 28.2 27.1 12.1 37 9.5 NNW 9 15 5 8 1017.2 1015.3 0.0
06/02:30pm 26.9 26.1 11.0 37 9.2 NE 6 15 3 8 1017.5 - 0.0
06/02:00pm 26.6 25.0 11.5 39 8.8 E 11 17 6 9 1017.9 - 0.0
06/01:30pm 26.6 24.9 12.3 41 8.5 NW 13 24 7 13 1018.3 - 0.0
06/01:00pm 25.6 23.0 12.1 43 7.9 N 17 24 9 13 1018.7 - 0.0
06/12:30pm 25.1 22.2 13.0 47 7.2 N 20 28 11 15 1018.9 - 0.0
06/12:00pm 24.3 21.0 12.9 49 6.7 N 22 32 12 17 1019.2 - 0.0
06/11:30am 23.2 18.7 12.5 51 6.3 N 28 39 15 21 1019.2 - 0.0
06/11:00am 22.7 18.1 13.5 56 5.5 N 30 39 16 21 1019.3 - 0.0
06/10:30am 20.8 14.8 12.2 58 4.9 N 35 44 19 24 1019.1 - 0.0
06/10:00am 20.2 14.0 12.7 62 4.3 N 37 46 20 25 1019.2 - 0.0
06/09:30am 19.6 13.5 13.1 66 3.8 N 37 46 20 25 1019.2 - 0.0
06/09:00am 18.9 12.4 12.9 68 3.5 N 39 52 21 28 1019.1 1017.2 0.0
06/08:30am 17.6 11.3 12.3 71 3.0 N 37 50 20 27 1019.0 - 0.0
06/08:00am 16.5 10.7 12.7 78 2.2 N 35 43 19 23 1018.8 - 0.0
06/07:30am 15.7 10.2 12.3 80 1.9 N 33 41 18 22 1018.7 - 0.0
06/07:00am 15.2 9.6 12.0 81 1.8 N 33 39 18 21 1018.3 - 0.0
06/06:30am 15.2 9.7 12.0 81 1.8 N 32 37 17 20 1017.9 - 0.0
06/06:00am 15.5 10.0 11.9 79 2.0 N 32 37 17 20 1017.6 - 0.0
06/05:30am 15.9 11.2 12.1 78 2.1 N 28 33 15 18 1017.5 - 0.0
06/05:00am 16.6 12.9 12.8 78 2.2 NNE 24 28 13 15 1017.5 - 0.0
06/04:30am 16.3 13.4 12.3 77 2.3 NE 19 20 10 11 1017.5 - 0.0
06/04:00am 16.9 15.9 12.2 74 2.7 SE 9 11 5 6 1017.2 - 0.0
06/03:30am 17.0 16.1 11.5 70 3.1 S 7 11 4 6 1017.3 - 0.0
06/03:00am 16.6 16.0 12.2 75 2.5 S 7 11 4 6 1017.4 - 0.0
06/02:30am 15.4 13.3 12.5 83 1.6 WSW 15 17 8 9 1017.7 - 0.0
06/02:00am 15.3 13.3 12.8 85 1.4 WSW 15 19 8 10 1017.9 - 0.0
06/01:30am 15.1 12.4 12.8 86 1.3 WSW 19 24 10 13 1018.0 - 0.0
06/01:00am 15.2 12.3 12.9 86 1.3 WSW 20 28 11 15 1018.3 - 0.0
06/12:30am 15.5 12.2 12.8 84 1.5 WSW 22 28 12 15 1018.4 - 0.0
06/12:00am 15.9 13.0 12.8 82 1.8 WSW 20 24 11 13 1018.6 - 0.0
 
Date/Time
EDT
Temp
°C
App
Temp
°C
Dew
Point
Rel
Hum
%
Delta-T
°C
Wind Press
QNH
hPa
Press
MSL
hPa
Rain
since 9 am
mm
Dir
 
Spd
km/h
Gust
km/h
Spd
kts
Gust
kts
05/11:30pm 16.5 13.7 12.7 78 2.2 SW 19 24 10 13 1018.7 - 0.0
05/11:00pm 17.2 14.2 12.5 74 2.7 SW 20 24 11 13 1018.8 - 0.0
05/10:30pm 18.0 14.6 12.5 70 3.1 SW 22 28 12 15 1018.8 - 0.0
05/10:00pm 18.7 15.6 12.2 66 3.7 SSW 20 24 11 13 1018.7 - 0.0
05/09:30pm 19.5 16.3 12.0 62 4.3 SSW 20 24 11 13 1018.6 - 0.0
05/09:00pm 20.5 17.3 12.0 58 4.9 SSW 20 26 11 14 1018.2 - 0.0
05/08:30pm 21.4 18.2 12.0 55 5.4 SW 20 30 11 16 1018.0 - 0.0
05/08:00pm 22.7 20.1 12.0 50 6.2 SSW 17 24 9 13 1017.7 - 0.0
05/07:30pm 24.1 21.4 11.8 46 7.1 S 17 24 9 13 1017.5 - 0.0
05/07:00pm 25.1 22.7 11.3 42 8.0 SSW 15 24 8 13 1017.3 - 0.0
05/06:30pm 25.3 22.6 10.4 39 8.5 S 15 26 8 14 1017.3 - 0.0
05/06:00pm 25.8 22.8 10.8 39 8.6 S 17 26 9 14 1017.4 - 0.0
05/05:30pm 26.0 23.0 10.6 38 8.8 S 17 26 9 14 1017.5 - 0.0
05/05:00pm 26.5 22.9 9.8 35 9.5 SSE 19 28 10 15 1017.6 - 0.0
05/04:30pm 26.0 22.7 9.4 35 9.3 SSE 17 26 9 14 1017.9 - 0.0
05/04:00pm 26.3 22.9 10.5 37 9.1 S 19 28 10 15 1018.2 - 0.0
05/03:30pm 25.6 22.7 11.0 40 8.4 S 17 28 9 15 1018.6 - 0.0
05/03:00pm 25.7 22.9 9.9 37 8.9 S 15 24 8 13 1018.9 1017.0 0.0
05/02:30pm 24.7 21.9 11.3 43 7.7 SSE 17 24 9 13 1019.2 - 0.0
05/02:00pm 25.1 23.1 12.7 46 7.3 S 15 26 8 14 1019.5 - 0.0
05/01:30pm 23.4 21.4 11.5 47 6.8 S 13 20 7 11 1019.7 - 0.0
05/01:00pm 22.3 20.0 11.7 51 6.1 SW 15 22 8 12 1020.1 - 0.0
05/12:30pm 22.0 20.3 12.3 54 5.6 SSW 13 19 7 10 1020.4 - 0.0
05/12:00pm 21.5 20.2 12.6 57 5.2 SSW 11 17 6 9 1020.7 - 0.0
05/11:30am 19.5 17.9 11.5 60 4.5 S 11 19 6 10 1020.9 - 0.0
05/11:00am 18.8 16.7 12.5 67 3.6 SSW 15 20 8 11 1021.0 - 0.0
05/10:30am 17.7 15.7 12.8 73 2.8 SSW 15 20 8 11 1021.1 - 0.0
05/10:00am 17.0 14.8 13.3 79 2.1 SW 17 22 9 12 1021.0 - 0.0
05/09:58am 16.8 14.7 13.5 81 1.9 SW 17 22 9 12 1021.0 - 0.0
05/09:30am 16.3 14.8 14.1 87 1.3 SW 15 20 8 11 1021.0 - 0.0
05/09:00am 15.0 12.5 14.0 94 0.6 SW 20 26 11 14 1020.7 1018.8 0.0
05/08:39am 14.2 12.2 14.0 99 0.1 WSW 17 24 9 13 1020.4 - 0.0
05/08:30am 14.2 11.9 14.0 99 0.1 SW 19 24 10 13 1020.3 - 0.0
05/08:00am 13.5 10.7 13.3 99 0.1 SW 20 26 11 14 1020.1 - 0.0
05/07:59am 13.4 10.6 13.2 99 0.1 SW 20 26 11 14 1020.1 - 0.0
05/07:30am 13.6 11.1 13.4 99 0.1 SW 19 24 10 13 1020.0 - 0.0
05/07:00am 13.2 10.9 13.0 99 0.1 SSW 17 20 9 11 1019.8 - 0.0
05/06:30am 13.2 11.3 13.0 99 0.1 S 15 24 8 13 1019.5 - 0.0
05/06:00am 13.2 10.9 13.0 99 0.1 S 17 22 9 12 1019.3 - 0.0
05/05:30am 13.3 11.0 13.1 99 0.1 S 17 24 9 13 1019.0 - 0.0
05/05:28am 13.3 11.0 13.1 99 0.1 S 17 24 9 13 1019.0 - 0.0
05/05:23am 13.2 10.5 13.0 99 0.1 S 19 24 10 13 1018.9 - 0.0
05/05:13am 13.3 11.0 13.1 99 0.1 S 17 24 9 13 1018.9 - 0.0
05/05:12am 13.3 11.0 13.1 99 0.1 S 17 24 9 13 1018.9 - 0.0
05/05:00am 13.3 10.7 13.1 99 0.1 S 19 26 10 14 1018.8 - 0.0
05/04:30am 13.6 11.1 13.4 99 0.1 S 19 24 10 13 1018.8 - 0.0
05/04:01am 13.6 11.1 13.4 99 0.1 S 19 28 10 15 1018.9 - 0.0
05/04:00am 13.6 11.1 13.4 99 0.1 S 19 28 10 15 1018.9 - 0.0
05/03:30am 13.7 10.6 13.5 99 0.1 S 22 32 12 17 1018.9 - 0.0
05/03:29am 13.7 10.6 13.5 99 0.1 S 22 32 12 17 1018.9 - 0.0
05/03:25am 13.7 10.6 13.5 99 0.1 S 22 32 12 17 1018.9 - 0.0
05/03:21am 13.7 10.6 13.5 99 0.1 S 22 32 12 17 1018.9 - 0.0
05/03:18am 13.7 10.6 13.5 99 0.1 S 22 33 12 18 1018.9 - 0.0
05/03:00am 13.6 9.7 13.4 99 0.1 S 26 33 14 18 1018.8 - 0.0
05/02:58am 13.6 10.1 13.4 99 0.1 S 24 32 13 17 1018.8 - 0.0
05/02:56am 13.6 10.1 13.4 99 0.1 S 24 32 13 17 1018.8 - 0.0
05/02:55am 13.6 10.1 13.4 99 0.1 S 24 32 13 17 1018.9 - 0.0
05/02:54am 13.7 10.2 13.5 99 0.1 S 24 32 13 17 1018.9 - 0.0
05/02:51am 13.6 10.1 13.4 99 0.1 S 24 33 13 18 1019.0 - 0.0
05/02:30am 13.6 9.7 13.4 99 0.1 S 26 35 14 19 1019.1 - 0.0
05/02:28am 13.6 10.1 13.4 99 0.1 S 24 35 13 19 1019.1 - 0.0
05/02:00am 13.6 9.4 13.4 99 0.1 S 28 39 15 21 1019.2 - 0.0
05/01:30am 13.6 9.4 13.4 99 0.1 S 28 41 15 22 1019.3 - 0.0
05/01:00am 13.5 8.8 13.2 98 0.2 S 30 43 16 23 1019.4 - 0.0
05/12:31am 13.6 10.0 13.1 97 0.3 S 24 33 13 18 1019.7 - 0.0
05/12:30am 13.6 10.0 13.1 97 0.3 S 24 33 13 18 1019.8 - 0.0
05/12:00am 13.6 9.9 12.8 95 0.4 S 24 35 13 19 1019.8 - 0.0
 
Date/Time
EDT
Temp
°C
App
Temp
°C
Dew
Point
Rel
Hum
%
Delta-T
°C
Wind Press
QNH
hPa
Press
MSL
hPa
Rain
since 9 am
mm
Dir
 
Spd
km/h
Gust
km/h
Spd
kts
Gust
kts
04/11:30pm 13.6 9.1 12.7 94 0.5 S 28 37 15 20 1019.9 - 0.0
04/11:00pm 13.8 8.9 12.5 92 0.7 S 30 43 16 23 1019.8 - 0.0
04/10:30pm 13.9 9.4 12.6 92 0.7 S 28 39 15 21 1020.0 - 0.0
04/10:00pm 13.8 10.0 12.5 92 0.7 S 24 35 13 19 1020.0 - 0.0
04/09:30pm 13.6 9.3 12.2 91 0.8 S 26 41 14 22 1019.8 - 0.0
04/09:00pm 13.6 9.1 11.5 87 1.1 S 26 41 14 22 1019.7 - 0.0
04/08:54pm 13.6 9.1 11.3 86 1.3 S 26 41 14 22 1019.6 - 0.0
04/08:30pm 13.8 8.4 10.8 82 1.6 S 30 41 16 22 1019.5 - 0.0
04/08:08pm 14.3 9.3 10.9 80 1.8 S 28 46 15 25 1019.3 - 0.0
04/08:00pm 14.5 9.2 11.1 80 1.9 S 30 44 16 24 1019.2 - 0.0
04/07:30pm 15.6 10.0 11.4 76 2.3 S 32 44 17 24 1018.9 - 0.0
04/07:00pm 16.2 11.1 12.0 76 2.4 S 30 41 16 22 1018.4 - 0.0
04/06:30pm 16.7 11.2 11.8 73 2.7 S 32 43 17 23 1018.3 - 0.0
04/06:00pm 17.0 11.6 12.1 73 2.8 S 32 50 17 27 1018.1 - 0.0
04/05:30pm 17.9 12.4 12.4 70 3.1 S 33 52 18 28 1018.1 - 0.0
04/05:01pm 18.4 12.9 12.6 69 3.3 S 33 52 18 28 1018.2 - 0.0
04/05:00pm 18.0 12.0 12.0 68 3.4 S 35 52 19 28 1018.2 - 0.0
04/04:36pm 18.4 12.4 12.2 67 3.5 S 35 54 19 29 1018.3 - 0.0
04/04:30pm 18.4 12.3 11.9 66 3.7 S 35 48 19 26 1018.4 - 0.0
04/04:04pm 17.9 12.2 11.7 67 3.5 S 33 52 18 28 1018.3 - 0.0
04/04:00pm 18.1 12.4 11.9 67 3.5 S 33 50 18 27 1018.4 - 0.0
04/03:32pm 17.4 11.9 11.9 70 3.1 S 32 50 17 27 1018.9 - 0.0
04/03:30pm 17.8 12.3 12.3 70 3.1 S 33 50 18 27 1018.9 - 0.0
04/03:21pm 18.1 12.7 12.3 69 3.3 S 32 50 17 27 1018.9 - 0.0
04/03:00pm 18.0 13.0 12.2 69 3.3 S 30 46 16 25 1019.1 - 0.0
04/02:54pm 18.0 12.7 12.5 70 3.1 S 32 50 17 27 1019.0 - 0.0
04/02:30pm 17.5 12.5 12.2 71 3.0 S 30 44 16 24 1019.2 - 0.0
04/02:01pm 17.2 12.9 12.1 72 2.9 S 26 43 14 23 1019.3 - 0.0
04/02:00pm 17.1 12.8 12.0 72 2.9 S 26 43 14 23 1019.3 - 0.0
04/01:30pm 15.8 11.8 11.8 77 2.2 S 24 39 13 21 1019.5 - 0.0
04/01:00pm 15.2 10.9 12.0 81 1.8 S 26 39 14 21 1019.7 - 0.0
04/12:35pm 15.0 10.6 11.6 80 1.9 S 26 39 14 21 1019.7 - 0.0
04/12:30pm 15.7 11.6 11.5 76 2.3 S 24 46 13 25 1019.7 - 0.0
04/12:00pm 15.8 11.6 11.2 74 2.5 SSE 24 41 13 22 1019.6 - 0.0
04/11:39am 15.9 12.3 11.9 77 2.2 S 22 35 12 19 1019.8 - 0.0
04/11:30am 15.4 11.3 11.4 77 2.2 S 24 33 13 18 1019.8 - 0.0
04/11:00am 14.8 10.2 11.2 79 2.0 S 26 35 14 19 1019.5 - 0.0
04/10:30am 14.7 9.8 11.3 80 1.9 S 28 43 15 23 1019.2 - 0.0
04/10:00am 14.4 9.5 11.2 81 1.7 S 28 46 15 25 1019.0 - 0.0
04/09:58am 14.4 9.4 11.0 80 1.9 S 28 46 15 25 1019.0 - 0.0
04/09:30am 13.7 9.4 10.9 83 1.5 SSE 24 39 13 21 1019.0 - 0.0
04/09:00am 13.5 9.1 10.3 81 1.7 SSE 24 39 13 21 1018.8 - 1.4
04/08:30am 13.0 9.2 11.1 88 1.0 S 22 32 12 17 1018.4 - 1.4
04/08:00am 12.8 9.0 11.2 90 0.9 S 22 32 12 17 1018.2 - 1.4
04/07:30am 12.6 8.3 10.8 89 1.0 S 24 37 13 20 1017.7 - 1.4
04/07:16am 12.5 8.2 10.7 89 1.0 S 24 33 13 18 1017.6 - 1.4
04/07:00am 12.5 7.4 10.6 88 1.0 S 28 41 15 22 1017.4 - 1.4
04/06:55am 12.4 6.5 10.5 88 1.0 S 32 41 17 22 1017.4 - 1.4
04/06:30am 12.4 7.2 10.1 86 1.2 S 28 41 15 22 1017.2 - 1.4
04/06:29am 12.4 6.8 10.0 85 1.3 S 30 41 16 22 1017.2 - 1.4
04/06:00am 12.4 6.3 9.6 83 1.5 S 32 46 17 25 1016.7 - 1.4
04/05:30am 12.1 6.0 9.7 85 1.3 S 32 43 17 23 1016.1 - 1.4
04/05:01am 12.2 5.6 8.7 79 1.8 S 33 52 18 28 1015.6 - 1.4
04/05:00am 12.2 5.3 8.7 79 1.8 S 35 52 19 28 1015.6 - 1.4
04/04:51am 12.1 5.1 8.4 78 1.9 S 35 54 19 29 1015.5 - 1.4
04/04:30am 12.2 4.5 8.5 78 1.9 S 39 54 21 29 1015.2 - 1.4
04/04:15am 12.3 4.1 8.2 76 2.1 S 41 61 22 33 1015.2 - 1.4
04/04:00am 12.3 5.1 9.3 82 1.6 S 37 54 20 29 1015.4 - 1.4
04/03:31am 12.4 4.8 9.1 80 1.7 S 39 57 21 31 1015.2 - 1.4
04/03:30am 12.4 4.4 8.9 79 1.8 S 41 57 22 31 1015.2 - 1.4
04/03:23am 12.4 5.5 8.9 79 1.8 S 35 57 19 31 1015.2 - 1.4
04/03:08am 12.3 5.1 9.1 81 1.7 S 37 48 20 26 1015.3 - 1.4
04/03:00am 12.3 5.1 9.1 81 1.7 S 37 50 20 27 1015.3 - 1.4
04/02:37am 12.5 6.3 10.0 85 1.3 S 33 52 18 28 1015.2 - 1.4
04/02:30am 12.4 6.6 9.6 83 1.5 S 30 39 16 21 1015.3 - 1.4
04/02:24am 12.5 6.3 9.3 81 1.7 S 32 41 17 22 1015.3 - 1.4
04/02:02am 12.5 5.7 9.3 81 1.7 S 35 54 19 29 1015.2 - 1.4
04/02:00am 12.5 5.3 9.3 81 1.7 S 37 54 20 29 1015.2 - 1.4
04/01:50am 12.5 6.4 9.7 83 1.5 S 32 50 17 27 1015.2 - 1.4
04/01:30am 12.6 6.0 10.0 84 1.4 S 35 50 19 27 1015.4 - 1.4
04/01:00am 12.8 6.6 10.2 84 1.4 S 33 59 18 32 1015.3 - 1.4
04/12:41am 12.7 7.1 10.2 85 1.3 S 30 48 16 26 1015.3 - 1.4
04/12:36am 12.7 6.7 10.2 85 1.3 S 32 48 17 26 1015.3 - 1.4
04/12:30am 12.7 6.5 10.2 85 1.3 S 33 44 18 24 1015.2 - 1.4
04/12:00am 12.8 6.7 10.5 86 1.2 S 33 44 18 24 1015.2 - 1.4
 
Date/Time
EDT
Temp
°C
App
Temp
°C
Dew
Point
Rel
Hum
%
Delta-T
°C
Wind Press
QNH
hPa
Press
MSL
hPa
Rain
since 9 am
mm
Dir
 
Spd
km/h
Gust
km/h
Spd
kts
Gust
kts
03/11:37pm 12.9 7.0 10.6 86 1.2 S 32 50 17 27 1015.3 - 1.4
03/11:30pm 12.8 7.0 10.7 87 1.1 S 32 44 17 24 1015.4 - 1.4
03/11:00pm 13.0 6.8 10.2 83 1.5 S 33 50 18 27 1015.4 - 1.4
03/10:53pm 12.9 6.7 10.1 83 1.5 S 33 52 18 28 1015.3 - 1.4
03/10:46pm 12.8 6.8 10.2 84 1.4 S 32 52 17 28 1015.4 - 1.4

Other Formats:

Comma delimited format used in spreadsheet applications
http://www.bom.gov.au/fwo/IDV60801/IDV60801.94860.axf

JavaScript Object Notation format (JSON) in row-major order
http://www.bom.gov.au/fwo/IDV60801/IDV60801.94860.json